sensor_id;sensor_type;location;lat;lon;timestamp;P1;durP1;ratioP1;P2;durP2;ratioP2
72524;SDS011;60547;48.502;8.996;2023-05-10T00:01:31;2.33;;;1.10;;
72524;SDS011;60547;48.502;8.996;2023-05-10T00:03:57;4.10;;;0.98;;
72524;SDS011;60547;48.502;8.996;2023-05-10T00:06:22;2.80;;;0.85;;
72524;SDS011;60547;48.502;8.996;2023-05-10T00:08:48;2.15;;;1.02;;
72524;SDS011;60547;48.502;8.996;2023-05-10T00:11:14;1.67;;;0.77;;
72524;SDS011;60547;48.502;8.996;2023-05-10T00:13:39;2.15;;;0.90;;
72524;SDS011;60547;48.502;8.996;2023-05-10T00:16:05;1.58;;;0.77;;
72524;SDS011;60547;48.502;8.996;2023-05-10T00:18:34;2.17;;;0.80;;
72524;SDS011;60547;48.502;8.996;2023-05-10T00:20:59;2.00;;;0.90;;
72524;SDS011;60547;48.502;8.996;2023-05-10T00:23:45;1.70;;;0.70;;
72524;SDS011;60547;48.502;8.996;2023-05-10T00:26:11;1.45;;;0.60;;
72524;SDS011;60547;48.502;8.996;2023-05-10T00:28:36;0.75;;;0.50;;
72524;SDS011;60547;48.502;8.996;2023-05-10T00:31:03;1.85;;;0.63;;
72524;SDS011;60547;48.502;8.996;2023-05-10T00:33:29;1.05;;;0.47;;
72524;SDS011;60547;48.502;8.996;2023-05-10T00:35:57;1.75;;;0.40;;
72524;SDS011;60547;48.502;8.996;2023-05-10T00:38:44;3.35;;;0.50;;
72524;SDS011;60547;48.502;8.996;2023-05-10T00:41:15;1.05;;;0.57;;
72524;SDS011;60547;48.502;8.996;2023-05-10T00:43:41;0.80;;;0.40;;
72524;SDS011;60547;48.502;8.996;2023-05-10T00:46:06;1.50;;;0.50;;
72524;SDS011;60547;48.502;8.996;2023-05-10T00:48:32;1.25;;;0.40;;
72524;SDS011;60547;48.502;8.996;2023-05-10T00:51:02;1.00;;;0.50;;
72524;SDS011;60547;48.502;8.996;2023-05-10T00:53:34;1.20;;;0.50;;
72524;SDS011;60547;48.502;8.996;2023-05-10T00:56:00;1.45;;;0.50;;
72524;SDS011;60547;48.502;8.996;2023-05-10T00:58:28;1.08;;;0.32;;
72524;SDS011;60547;48.502;8.996;2023-05-10T01:00:57;0.30;;;0.20;;
72524;SDS011;60547;48.502;8.996;2023-05-10T01:03:23;0.52;;;0.38;;
72524;SDS011;60547;48.502;8.996;2023-05-10T01:05:50;0.47;;;0.30;;
72524;SDS011;60547;48.502;8.996;2023-05-10T01:08:15;1.75;;;0.35;;
72524;SDS011;60547;48.502;8.996;2023-05-10T01:10:41;0.38;;;0.30;;
72524;SDS011;60547;48.502;8.996;2023-05-10T01:13:08;0.73;;;0.47;;
72524;SDS011;60547;48.502;8.996;2023-05-10T01:15:34;0.65;;;0.30;;
72524;SDS011;60547;48.502;8.996;2023-05-10T01:18:01;0.10;;;0.10;;
72524;SDS011;60547;48.502;8.996;2023-05-10T01:20:30;0.43;;;0.10;;
72524;SDS011;60547;48.502;8.996;2023-05-10T01:26:46;0.82;;;0.35;;
72524;SDS011;60547;48.502;8.996;2023-05-10T01:32:09;1.58;;;0.28;;
72524;SDS011;60547;48.502;8.996;2023-05-10T01:37:23;0.20;;;0.20;;
72524;SDS011;60547;48.502;8.996;2023-05-10T01:42:36;0.10;;;0.10;;
72524;SDS011;60547;48.502;8.996;2023-05-10T01:45:18;0.40;;;0.20;;
72524;SDS011;60547;48.502;8.996;2023-05-10T01:47:53;0.47;;;0.30;;
72524;SDS011;60547;48.502;8.996;2023-05-10T01:50:29;1.90;;;0.30;;
72524;SDS011;60547;48.502;8.996;2023-05-10T01:52:56;0.57;;;0.30;;
72524;SDS011;60547;48.502;8.996;2023-05-10T01:55:25;0.65;;;0.20;;
72524;SDS011;60547;48.502;8.996;2023-05-10T01:58:03;0.63;;;0.30;;
72524;SDS011;60547;48.502;8.996;2023-05-10T02:00:31;0.75;;;0.30;;
72524;SDS011;60547;48.502;8.996;2023-05-10T02:02:59;0.40;;;0.20;;
72524;SDS011;60547;48.502;8.996;2023-05-10T02:05:30;0.47;;;0.30;;
72524;SDS011;60547;48.502;8.996;2023-05-10T02:07:57;0.80;;;0.25;;
72524;SDS011;60547;48.502;8.996;2023-05-10T02:10:25;1.15;;;0.45;;
72524;SDS011;60547;48.502;8.996;2023-05-10T02:12:52;1.55;;;0.30;;
72524;SDS011;60547;48.502;8.996;2023-05-10T02:15:20;0.75;;;0.30;;
72524;SDS011;60547;48.502;8.996;2023-05-10T02:17:48;1.20;;;0.40;;
72524;SDS011;60547;48.502;8.996;2023-05-10T02:20:14;1.33;;;0.40;;
72524;SDS011;60547;48.502;8.996;2023-05-10T02:22:41;2.72;;;0.40;;
72524;SDS011;60547;48.502;8.996;2023-05-10T02:25:08;1.27;;;0.50;;
72524;SDS011;60547;48.502;8.996;2023-05-10T02:27:36;2.65;;;0.73;;
72524;SDS011;60547;48.502;8.996;2023-05-10T02:30:03;1.13;;;0.50;;
72524;SDS011;60547;48.502;8.996;2023-05-10T02:32:31;0.85;;;0.40;;
72524;SDS011;60547;48.502;8.996;2023-05-10T02:34:56;2.30;;;0.43;;
72524;SDS011;60547;48.502;8.996;2023-05-10T02:37:23;1.05;;;0.38;;
72524;SDS011;60547;48.502;8.996;2023-05-10T02:39:50;1.45;;;0.57;;
72524;SDS011;60547;48.502;8.996;2023-05-10T02:42:19;0.32;;;0.30;;
72524;SDS011;60547;48.502;8.996;2023-05-10T02:44:50;2.20;;;0.52;;
72524;SDS011;60547;48.502;8.996;2023-05-10T02:47:19;1.23;;;0.40;;
72524;SDS011;60547;48.502;8.996;2023-05-10T02:49:45;1.17;;;0.52;;
72524;SDS011;60547;48.502;8.996;2023-05-10T02:52:11;1.33;;;0.50;;
72524;SDS011;60547;48.502;8.996;2023-05-10T02:54:52;1.50;;;0.50;;
72524;SDS011;60547;48.502;8.996;2023-05-10T02:57:28;1.77;;;0.60;;
72524;SDS011;60547;48.502;8.996;2023-05-10T02:59:56;0.98;;;0.60;;
72524;SDS011;60547;48.502;8.996;2023-05-10T03:02:22;1.75;;;0.70;;
72524;SDS011;60547;48.502;8.996;2023-05-10T03:04:48;1.63;;;0.85;;
72524;SDS011;60547;48.502;8.996;2023-05-10T03:07:15;3.55;;;0.70;;
72524;SDS011;60547;48.502;8.996;2023-05-10T03:09:41;1.02;;;0.60;;
72524;SDS011;60547;48.502;8.996;2023-05-10T03:12:10;1.75;;;0.80;;
72524;SDS011;60547;48.502;8.996;2023-05-10T03:14:42;2.33;;;0.80;;
72524;SDS011;60547;48.502;8.996;2023-05-10T03:17:29;1.75;;;0.70;;
72524;SDS011;60547;48.502;8.996;2023-05-10T03:20:06;1.40;;;0.75;;
72524;SDS011;60547;48.502;8.996;2023-05-10T03:22:47;2.05;;;0.70;;
72524;SDS011;60547;48.502;8.996;2023-05-10T03:25:16;1.35;;;0.80;;
72524;SDS011;60547;48.502;8.996;2023-05-10T03:27:43;1.42;;;0.70;;
72524;SDS011;60547;48.502;8.996;2023-05-10T03:30:11;2.85;;;0.80;;
72524;SDS011;60547;48.502;8.996;2023-05-10T03:32:38;1.70;;;0.60;;
72524;SDS011;60547;48.502;8.996;2023-05-10T03:35:08;1.65;;;0.70;;
72524;SDS011;60547;48.502;8.996;2023-05-10T03:37:34;1.75;;;0.80;;
72524;SDS011;60547;48.502;8.996;2023-05-10T03:40:01;1.00;;;0.60;;
72524;SDS011;60547;48.502;8.996;2023-05-10T03:42:28;2.95;;;0.77;;
72524;SDS011;60547;48.502;8.996;2023-05-10T03:44:54;1.45;;;0.60;;
72524;SDS011;60547;48.502;8.996;2023-05-10T03:47:20;0.98;;;0.70;;
72524;SDS011;60547;48.502;8.996;2023-05-10T03:49:47;1.33;;;0.70;;
72524;SDS011;60547;48.502;8.996;2023-05-10T03:52:12;1.33;;;0.68;;
72524;SDS011;60547;48.502;8.996;2023-05-10T03:54:38;1.90;;;0.80;;
72524;SDS011;60547;48.502;8.996;2023-05-10T03:57:03;1.67;;;0.70;;
72524;SDS011;60547;48.502;8.996;2023-05-10T03:59:29;1.73;;;0.60;;
72524;SDS011;60547;48.502;8.996;2023-05-10T04:01:55;1.20;;;0.80;;
72524;SDS011;60547;48.502;8.996;2023-05-10T04:04:21;1.75;;;0.60;;
72524;SDS011;60547;48.502;8.996;2023-05-10T04:06:47;4.82;;;0.80;;
72524;SDS011;60547;48.502;8.996;2023-05-10T04:09:14;1.73;;;0.70;;
72524;SDS011;60547;48.502;8.996;2023-05-10T04:11:40;0.60;;;0.52;;
72524;SDS011;60547;48.502;8.996;2023-05-10T04:14:05;2.40;;;0.85;;
72524;SDS011;60547;48.502;8.996;2023-05-10T04:16:31;2.45;;;0.82;;
72524;SDS011;60547;48.502;8.996;2023-05-10T04:18:56;2.67;;;0.90;;
72524;SDS011;60547;48.502;8.996;2023-05-10T04:21:25;2.90;;;1.20;;
72524;SDS011;60547;48.502;8.996;2023-05-10T04:23:51;3.28;;;1.40;;
72524;SDS011;60547;48.502;8.996;2023-05-10T04:26:16;3.30;;;1.38;;
72524;SDS011;60547;48.502;8.996;2023-05-10T04:28:42;4.93;;;1.55;;
72524;SDS011;60547;48.502;8.996;2023-05-10T04:31:08;4.63;;;1.35;;
72524;SDS011;60547;48.502;8.996;2023-05-10T04:33:35;2.08;;;1.08;;
72524;SDS011;60547;48.502;8.996;2023-05-10T04:36:01;1.77;;;1.00;;
72524;SDS011;60547;48.502;8.996;2023-05-10T04:38:27;1.92;;;0.90;;
72524;SDS011;60547;48.502;8.996;2023-05-10T04:40:53;1.42;;;0.90;;
72524;SDS011;60547;48.502;8.996;2023-05-10T04:43:19;4.28;;;1.30;;
72524;SDS011;60547;48.502;8.996;2023-05-10T04:45:45;2.08;;;0.80;;
72524;SDS011;60547;48.502;8.996;2023-05-10T04:48:11;1.35;;;0.70;;
72524;SDS011;60547;48.502;8.996;2023-05-10T04:50:36;1.30;;;0.80;;
72524;SDS011;60547;48.502;8.996;2023-05-10T04:53:02;1.75;;;0.80;;
72524;SDS011;60547;48.502;8.996;2023-05-10T04:55:27;1.90;;;0.70;;
72524;SDS011;60547;48.502;8.996;2023-05-10T04:57:53;1.80;;;0.90;;
72524;SDS011;60547;48.502;8.996;2023-05-10T05:00:20;3.42;;;0.90;;
72524;SDS011;60547;48.502;8.996;2023-05-10T05:02:46;2.40;;;1.00;;
72524;SDS011;60547;48.502;8.996;2023-05-10T05:05:11;1.30;;;0.85;;
72524;SDS011;60547;48.502;8.996;2023-05-10T05:07:37;5.82;;;1.00;;
72524;SDS011;60547;48.502;8.996;2023-05-10T05:10:04;2.13;;;0.90;;
72524;SDS011;60547;48.502;8.996;2023-05-10T05:12:33;1.73;;;0.75;;
72524;SDS011;60547;48.502;8.996;2023-05-10T05:14:59;2.55;;;0.93;;
72524;SDS011;60547;48.502;8.996;2023-05-10T05:17:24;1.70;;;0.75;;
72524;SDS011;60547;48.502;8.996;2023-05-10T05:19:50;1.38;;;0.90;;
72524;SDS011;60547;48.502;8.996;2023-05-10T05:22:16;1.70;;;0.88;;
72524;SDS011;60547;48.502;8.996;2023-05-10T05:24:42;2.05;;;0.90;;
72524;SDS011;60547;48.502;8.996;2023-05-10T05:27:08;4.70;;;1.45;;
72524;SDS011;60547;48.502;8.996;2023-05-10T05:29:33;7.90;;;1.35;;
72524;SDS011;60547;48.502;8.996;2023-05-10T05:31:59;1.98;;;1.00;;
72524;SDS011;60547;48.502;8.996;2023-05-10T05:34:25;2.88;;;1.20;;
72524;SDS011;60547;48.502;8.996;2023-05-10T05:36:51;2.30;;;1.00;;
72524;SDS011;60547;48.502;8.996;2023-05-10T05:39:16;2.40;;;0.90;;
72524;SDS011;60547;48.502;8.996;2023-05-10T05:41:42;1.63;;;0.90;;
72524;SDS011;60547;48.502;8.996;2023-05-10T05:44:07;3.30;;;1.30;;
72524;SDS011;60547;48.502;8.996;2023-05-10T05:46:33;3.67;;;1.40;;
72524;SDS011;60547;48.502;8.996;2023-05-10T05:48:58;2.80;;;1.23;;
72524;SDS011;60547;48.502;8.996;2023-05-10T05:51:24;3.45;;;1.40;;
72524;SDS011;60547;48.502;8.996;2023-05-10T05:53:50;2.88;;;1.20;;
72524;SDS011;60547;48.502;8.996;2023-05-10T05:56:22;1.88;;;1.02;;
72524;SDS011;60547;48.502;8.996;2023-05-10T05:58:50;3.92;;;1.10;;
72524;SDS011;60547;48.502;8.996;2023-05-10T06:01:16;1.80;;;0.90;;
72524;SDS011;60547;48.502;8.996;2023-05-10T06:03:41;2.15;;;0.98;;
72524;SDS011;60547;48.502;8.996;2023-05-10T06:06:07;2.67;;;1.00;;
72524;SDS011;60547;48.502;8.996;2023-05-10T06:08:32;2.47;;;1.10;;
72524;SDS011;60547;48.502;8.996;2023-05-10T06:10:59;3.10;;;1.00;;
72524;SDS011;60547;48.502;8.996;2023-05-10T06:13:25;4.03;;;1.20;;
72524;SDS011;60547;48.502;8.996;2023-05-10T06:15:54;4.68;;;1.40;;
72524;SDS011;60547;48.502;8.996;2023-05-10T06:18:19;5.43;;;1.25;;
72524;SDS011;60547;48.502;8.996;2023-05-10T06:20:44;2.60;;;1.10;;
72524;SDS011;60547;48.502;8.996;2023-05-10T06:23:10;2.05;;;1.00;;
72524;SDS011;60547;48.502;8.996;2023-05-10T06:25:36;2.75;;;1.00;;
72524;SDS011;60547;48.502;8.996;2023-05-10T06:28:02;2.80;;;1.10;;
72524;SDS011;60547;48.502;8.996;2023-05-10T06:30:27;3.30;;;1.08;;
72524;SDS011;60547;48.502;8.996;2023-05-10T06:32:53;2.85;;;1.10;;
72524;SDS011;60547;48.502;8.996;2023-05-10T06:35:20;2.13;;;0.90;;
72524;SDS011;60547;48.502;8.996;2023-05-10T06:37:45;3.00;;;0.90;;
72524;SDS011;60547;48.502;8.996;2023-05-10T06:40:11;2.70;;;1.00;;
72524;SDS011;60547;48.502;8.996;2023-05-10T06:42:37;2.50;;;1.00;;
72524;SDS011;60547;48.502;8.996;2023-05-10T06:45:03;3.70;;;1.20;;
72524;SDS011;60547;48.502;8.996;2023-05-10T06:47:28;2.65;;;0.93;;
72524;SDS011;60547;48.502;8.996;2023-05-10T06:49:54;2.50;;;0.88;;
72524;SDS011;60547;48.502;8.996;2023-05-10T06:52:20;2.97;;;0.85;;
72524;SDS011;60547;48.502;8.996;2023-05-10T06:54:46;3.30;;;1.00;;
72524;SDS011;60547;48.502;8.996;2023-05-10T06:57:11;3.08;;;1.00;;
72524;SDS011;60547;48.502;8.996;2023-05-10T06:59:37;3.03;;;1.42;;
72524;SDS011;60547;48.502;8.996;2023-05-10T07:02:03;1.83;;;1.00;;
72524;SDS011;60547;48.502;8.996;2023-05-10T07:04:28;3.17;;;1.25;;
72524;SDS011;60547;48.502;8.996;2023-05-10T07:06:54;2.25;;;1.13;;
72524;SDS011;60547;48.502;8.996;2023-05-10T07:09:19;2.38;;;1.00;;
72524;SDS011;60547;48.502;8.996;2023-05-10T07:11:45;2.05;;;1.00;;
72524;SDS011;60547;48.502;8.996;2023-05-10T07:14:10;2.08;;;1.00;;
72524;SDS011;60547;48.502;8.996;2023-05-10T07:16:36;1.83;;;0.90;;
72524;SDS011;60547;48.502;8.996;2023-05-10T07:19:01;3.92;;;1.17;;
72524;SDS011;60547;48.502;8.996;2023-05-10T07:21:27;2.65;;;0.88;;
72524;SDS011;60547;48.502;8.996;2023-05-10T07:23:54;2.72;;;0.90;;
72524;SDS011;60547;48.502;8.996;2023-05-10T07:26:19;4.15;;;0.90;;
72524;SDS011;60547;48.502;8.996;2023-05-10T07:28:46;1.98;;;0.90;;
72524;SDS011;60547;48.502;8.996;2023-05-10T07:31:12;1.55;;;0.82;;
72524;SDS011;60547;48.502;8.996;2023-05-10T07:33:38;3.70;;;1.05;;
72524;SDS011;60547;48.502;8.996;2023-05-10T07:36:04;1.45;;;0.70;;
72524;SDS011;60547;48.502;8.996;2023-05-10T07:38:32;4.47;;;1.30;;
72524;SDS011;60547;48.502;8.996;2023-05-10T07:40:58;1.25;;;0.85;;
72524;SDS011;60547;48.502;8.996;2023-05-10T07:43:23;3.85;;;1.15;;
72524;SDS011;60547;48.502;8.996;2023-05-10T07:45:49;2.15;;;0.93;;
72524;SDS011;60547;48.502;8.996;2023-05-10T07:48:14;3.53;;;1.10;;
72524;SDS011;60547;48.502;8.996;2023-05-10T07:50:40;2.05;;;0.90;;
72524;SDS011;60547;48.502;8.996;2023-05-10T07:53:06;3.00;;;0.80;;
72524;SDS011;60547;48.502;8.996;2023-05-10T07:55:31;1.88;;;0.80;;
72524;SDS011;60547;48.502;8.996;2023-05-10T07:58:02;1.30;;;0.70;;
72524;SDS011;60547;48.502;8.996;2023-05-10T08:00:28;2.33;;;1.10;;
72524;SDS011;60547;48.502;8.996;2023-05-10T08:02:53;1.58;;;0.70;;
72524;SDS011;60547;48.502;8.996;2023-05-10T08:05:19;1.77;;;0.90;;
72524;SDS011;60547;48.502;8.996;2023-05-10T08:07:44;0.77;;;0.55;;
72524;SDS011;60547;48.502;8.996;2023-05-10T08:10:10;0.82;;;0.50;;
72524;SDS011;60547;48.502;8.996;2023-05-10T08:12:38;1.92;;;0.70;;
72524;SDS011;60547;48.502;8.996;2023-05-10T08:15:04;1.23;;;0.70;;
72524;SDS011;60547;48.502;8.996;2023-05-10T08:17:30;1.77;;;0.80;;
72524;SDS011;60547;48.502;8.996;2023-05-10T08:19:55;2.80;;;0.90;;
72524;SDS011;60547;48.502;8.996;2023-05-10T08:22:21;2.03;;;0.57;;
72524;SDS011;60547;48.502;8.996;2023-05-10T08:24:47;2.70;;;1.02;;
72524;SDS011;60547;48.502;8.996;2023-05-10T08:27:12;1.33;;;0.80;;
72524;SDS011;60547;48.502;8.996;2023-05-10T08:29:38;1.30;;;0.70;;
72524;SDS011;60547;48.502;8.996;2023-05-10T08:32:03;2.45;;;1.00;;
72524;SDS011;60547;48.502;8.996;2023-05-10T08:34:29;1.55;;;0.65;;
72524;SDS011;60547;48.502;8.996;2023-05-10T08:36:56;3.22;;;1.15;;
72524;SDS011;60547;48.502;8.996;2023-05-10T08:39:22;1.02;;;0.65;;
72524;SDS011;60547;48.502;8.996;2023-05-10T08:41:48;1.27;;;0.60;;
72524;SDS011;60547;48.502;8.996;2023-05-10T08:44:17;1.60;;;0.70;;
72524;SDS011;60547;48.502;8.996;2023-05-10T08:46:44;1.42;;;0.68;;
72524;SDS011;60547;48.502;8.996;2023-05-10T08:49:13;1.63;;;0.68;;
72524;SDS011;60547;48.502;8.996;2023-05-10T08:51:41;2.15;;;0.52;;
72524;SDS011;60547;48.502;8.996;2023-05-10T08:54:11;1.35;;;0.40;;
72524;SDS011;60547;48.502;8.996;2023-05-10T08:56:37;1.80;;;0.60;;
72524;SDS011;60547;48.502;8.996;2023-05-10T08:59:03;0.82;;;0.45;;
72524;SDS011;60547;48.502;8.996;2023-05-10T09:01:28;1.38;;;0.63;;
72524;SDS011;60547;48.502;8.996;2023-05-10T09:03:57;2.00;;;0.63;;
72524;SDS011;60547;48.502;8.996;2023-05-10T09:06:23;0.73;;;0.50;;
72524;SDS011;60547;48.502;8.996;2023-05-10T09:08:49;1.65;;;0.65;;
72524;SDS011;60547;48.502;8.996;2023-05-10T09:11:16;1.65;;;0.70;;
72524;SDS011;60547;48.502;8.996;2023-05-10T09:13:42;0.57;;;0.57;;
72524;SDS011;60547;48.502;8.996;2023-05-10T09:16:08;0.85;;;0.60;;
72524;SDS011;60547;48.502;8.996;2023-05-10T09:18:34;0.60;;;0.52;;
72524;SDS011;60547;48.502;8.996;2023-05-10T09:21:00;1.15;;;0.60;;
72524;SDS011;60547;48.502;8.996;2023-05-10T09:23:25;0.70;;;0.50;;
72524;SDS011;60547;48.502;8.996;2023-05-10T09:26:04;3.00;;;1.60;;
72524;SDS011;60547;48.502;8.996;2023-05-10T09:28:33;7.45;;;4.15;;
72524;SDS011;60547;48.502;8.996;2023-05-10T09:31:14;2.95;;;1.30;;
72524;SDS011;60547;48.502;8.996;2023-05-10T09:33:44;2.72;;;0.98;;
72524;SDS011;60547;48.502;8.996;2023-05-10T09:36:11;1.05;;;0.70;;
72524;SDS011;60547;48.502;8.996;2023-05-10T09:41:16;0.75;;;0.40;;
72524;SDS011;60547;48.502;8.996;2023-05-10T09:43:45;1.65;;;0.60;;
72524;SDS011;60547;48.502;8.996;2023-05-10T09:46:11;2.03;;;0.88;;
72524;SDS011;60547;48.502;8.996;2023-05-10T09:48:44;1.13;;;0.70;;
72524;SDS011;60547;48.502;8.996;2023-05-10T09:51:21;1.20;;;0.70;;
72524;SDS011;60547;48.502;8.996;2023-05-10T09:53:48;0.65;;;0.65;;
72524;SDS011;60547;48.502;8.996;2023-05-10T09:56:34;2.00;;;0.60;;
72524;SDS011;60547;48.502;8.996;2023-05-10T09:59:04;1.83;;;0.60;;
72524;SDS011;60547;48.502;8.996;2023-05-10T10:01:30;1.58;;;0.75;;
72524;SDS011;60547;48.502;8.996;2023-05-10T10:03:56;4.75;;;2.60;;
72524;SDS011;60547;48.502;8.996;2023-05-10T10:06:24;18.27;;;13.43;;
72524;SDS011;60547;48.502;8.996;2023-05-10T10:08:51;13.45;;;7.88;;
72524;SDS011;60547;48.502;8.996;2023-05-10T10:11:19;8.15;;;4.97;;
72524;SDS011;60547;48.502;8.996;2023-05-10T10:13:45;5.80;;;2.40;;
72524;SDS011;60547;48.502;8.996;2023-05-10T10:16:11;3.28;;;1.50;;
72524;SDS011;60547;48.502;8.996;2023-05-10T10:18:36;5.80;;;3.40;;
72524;SDS011;60547;48.502;8.996;2023-05-10T10:21:08;2.85;;;1.10;;
72524;SDS011;60547;48.502;8.996;2023-05-10T10:23:37;5.60;;;2.22;;
72524;SDS011;60547;48.502;8.996;2023-05-10T10:26:03;5.70;;;2.88;;
72524;SDS011;60547;48.502;8.996;2023-05-10T10:31:32;10.05;;;5.78;;
72524;SDS011;60547;48.502;8.996;2023-05-10T10:34:08;12.80;;;8.93;;
72524;SDS011;60547;48.502;8.996;2023-05-10T10:36:47;7.32;;;3.78;;
72524;SDS011;60547;48.502;8.996;2023-05-10T10:39:13;3.92;;;2.38;;
72524;SDS011;60547;48.502;8.996;2023-05-10T10:41:40;3.15;;;1.10;;
72524;SDS011;60547;48.502;8.996;2023-05-10T10:47:01;2.90;;;1.23;;
72524;SDS011;60547;48.502;8.996;2023-05-10T10:49:27;1.77;;;0.93;;
72524;SDS011;60547;48.502;8.996;2023-05-10T10:54:38;2.85;;;0.75;;
72524;SDS011;60547;48.502;8.996;2023-05-10T10:57:10;1.05;;;0.60;;
72524;SDS011;60547;48.502;8.996;2023-05-10T10:59:43;0.47;;;0.40;;
72524;SDS011;60547;48.502;8.996;2023-05-10T11:02:09;0.77;;;0.30;;
72524;SDS011;60547;48.502;8.996;2023-05-10T11:04:41;0.52;;;0.30;;
72524;SDS011;60547;48.502;8.996;2023-05-10T11:07:17;0.20;;;0.20;;
72524;SDS011;60547;48.502;8.996;2023-05-10T11:09:44;2.45;;;0.50;;
72524;SDS011;60547;48.502;8.996;2023-05-10T11:12:10;5.18;;;1.08;;
72524;SDS011;60547;48.502;8.996;2023-05-10T11:14:35;3.20;;;0.68;;
72524;SDS011;60547;48.502;8.996;2023-05-10T11:17:01;1.27;;;0.57;;
72524;SDS011;60547;48.502;8.996;2023-05-10T11:19:27;2.88;;;0.95;;
72524;SDS011;60547;48.502;8.996;2023-05-10T11:24:31;2.22;;;0.60;;
72524;SDS011;60547;48.502;8.996;2023-05-10T11:26:58;1.15;;;0.50;;
72524;SDS011;60547;48.502;8.996;2023-05-10T11:29:24;0.90;;;0.57;;
72524;SDS011;60547;48.502;8.996;2023-05-10T11:31:51;1.90;;;0.50;;
72524;SDS011;60547;48.502;8.996;2023-05-10T11:34:23;1.67;;;0.80;;
72524;SDS011;60547;48.502;8.996;2023-05-10T11:36:56;1.25;;;0.63;;
72524;SDS011;60547;48.502;8.996;2023-05-10T11:39:26;2.05;;;0.85;;
72524;SDS011;60547;48.502;8.996;2023-05-10T11:41:52;1.10;;;0.63;;
72524;SDS011;60547;48.502;8.996;2023-05-10T11:44:18;3.33;;;1.27;;
72524;SDS011;60547;48.502;8.996;2023-05-10T11:46:43;2.00;;;0.98;;
72524;SDS011;60547;48.502;8.996;2023-05-10T11:49:09;2.15;;;0.90;;
72524;SDS011;60547;48.502;8.996;2023-05-10T11:51:35;2.35;;;0.85;;
72524;SDS011;60547;48.502;8.996;2023-05-10T11:54:05;1.50;;;0.75;;
72524;SDS011;60547;48.502;8.996;2023-05-10T11:56:32;2.17;;;1.05;;
72524;SDS011;60547;48.502;8.996;2023-05-10T11:58:58;4.57;;;0.90;;
72524;SDS011;60547;48.502;8.996;2023-05-10T12:01:25;1.17;;;0.75;;
72524;SDS011;60547;48.502;8.996;2023-05-10T12:03:52;2.42;;;0.75;;
72524;SDS011;60547;48.502;8.996;2023-05-10T12:06:19;1.83;;;0.80;;
72524;SDS011;60547;48.502;8.996;2023-05-10T12:08:46;1.90;;;0.73;;
72524;SDS011;60547;48.502;8.996;2023-05-10T12:11:12;1.70;;;0.70;;
72524;SDS011;60547;48.502;8.996;2023-05-10T12:13:41;2.90;;;1.15;;
72524;SDS011;60547;48.502;8.996;2023-05-10T12:16:16;2.20;;;0.80;;
72524;SDS011;60547;48.502;8.996;2023-05-10T12:18:44;1.27;;;0.65;;
72524;SDS011;60547;48.502;8.996;2023-05-10T12:21:11;1.63;;;0.70;;
72524;SDS011;60547;48.502;8.996;2023-05-10T12:23:37;4.70;;;0.80;;
72524;SDS011;60547;48.502;8.996;2023-05-10T12:26:06;3.17;;;1.02;;
72524;SDS011;60547;48.502;8.996;2023-05-10T12:28:34;1.95;;;0.95;;
72524;SDS011;60547;48.502;8.996;2023-05-10T12:31:01;1.90;;;0.88;;
72524;SDS011;60547;48.502;8.996;2023-05-10T12:33:26;2.30;;;1.00;;
72524;SDS011;60547;48.502;8.996;2023-05-10T12:35:52;3.15;;;1.25;;
72524;SDS011;60547;48.502;8.996;2023-05-10T12:38:39;4.85;;;0.82;;
72524;SDS011;60547;48.502;8.996;2023-05-10T12:41:11;4.20;;;0.90;;
72524;SDS011;60547;48.502;8.996;2023-05-10T12:43:40;2.88;;;0.90;;
72524;SDS011;60547;48.502;8.996;2023-05-10T12:46:09;1.50;;;0.70;;
72524;SDS011;60547;48.502;8.996;2023-05-10T12:48:36;2.03;;;0.98;;
72524;SDS011;60547;48.502;8.996;2023-05-10T12:51:04;2.85;;;0.88;;
72524;SDS011;60547;48.502;8.996;2023-05-10T12:53:30;1.48;;;0.80;;
72524;SDS011;60547;48.502;8.996;2023-05-10T12:55:56;2.08;;;0.88;;
72524;SDS011;60547;48.502;8.996;2023-05-10T12:58:22;3.97;;;1.13;;
72524;SDS011;60547;48.502;8.996;2023-05-10T13:00:47;2.35;;;0.82;;
72524;SDS011;60547;48.502;8.996;2023-05-10T13:03:13;2.90;;;0.90;;
72524;SDS011;60547;48.502;8.996;2023-05-10T13:05:39;3.25;;;0.88;;
72524;SDS011;60547;48.502;8.996;2023-05-10T13:08:05;1.50;;;0.90;;
72524;SDS011;60547;48.502;8.996;2023-05-10T13:10:30;1.65;;;0.70;;
72524;SDS011;60547;48.502;8.996;2023-05-10T13:12:57;2.30;;;0.90;;
72524;SDS011;60547;48.502;8.996;2023-05-10T13:15:23;2.83;;;1.17;;
72524;SDS011;60547;48.502;8.996;2023-05-10T13:17:48;2.17;;;1.02;;
72524;SDS011;60547;48.502;8.996;2023-05-10T13:20:14;2.42;;;1.00;;
72524;SDS011;60547;48.502;8.996;2023-05-10T13:22:40;2.92;;;1.08;;
72524;SDS011;60547;48.502;8.996;2023-05-10T13:25:08;4.90;;;1.30;;
72524;SDS011;60547;48.502;8.996;2023-05-10T13:27:36;3.85;;;1.10;;
72524;SDS011;60547;48.502;8.996;2023-05-10T13:30:02;4.63;;;1.42;;
72524;SDS011;60547;48.502;8.996;2023-05-10T13:32:29;2.60;;;1.00;;
72524;SDS011;60547;48.502;8.996;2023-05-10T13:34:54;2.40;;;0.90;;
72524;SDS011;60547;48.502;8.996;2023-05-10T13:37:21;1.60;;;0.75;;
72524;SDS011;60547;48.502;8.996;2023-05-10T13:39:46;3.13;;;0.93;;
72524;SDS011;60547;48.502;8.996;2023-05-10T13:42:13;2.67;;;0.80;;
72524;SDS011;60547;48.502;8.996;2023-05-10T13:44:38;3.65;;;0.90;;
72524;SDS011;60547;48.502;8.996;2023-05-10T13:47:04;2.33;;;0.90;;
72524;SDS011;60547;48.502;8.996;2023-05-10T13:49:30;2.40;;;0.82;;
72524;SDS011;60547;48.502;8.996;2023-05-10T13:51:55;3.72;;;1.77;;
72524;SDS011;60547;48.502;8.996;2023-05-10T13:54:21;2.83;;;1.00;;
72524;SDS011;60547;48.502;8.996;2023-05-10T13:56:47;3.40;;;1.10;;
72524;SDS011;60547;48.502;8.996;2023-05-10T13:59:13;1.75;;;0.82;;
72524;SDS011;60547;48.502;8.996;2023-05-10T14:01:40;2.10;;;1.00;;
72524;SDS011;60547;48.502;8.996;2023-05-10T14:04:06;2.17;;;1.13;;
72524;SDS011;60547;48.502;8.996;2023-05-10T14:06:33;2.75;;;0.80;;
72524;SDS011;60547;48.502;8.996;2023-05-10T14:08:59;1.58;;;0.70;;
72524;SDS011;60547;48.502;8.996;2023-05-10T14:11:24;4.60;;;1.00;;
72524;SDS011;60547;48.502;8.996;2023-05-10T14:13:50;2.47;;;1.00;;
72524;SDS011;60547;48.502;8.996;2023-05-10T14:16:15;3.53;;;0.93;;
72524;SDS011;60547;48.502;8.996;2023-05-10T14:18:41;2.67;;;0.90;;
72524;SDS011;60547;48.502;8.996;2023-05-10T14:21:06;1.70;;;0.88;;
72524;SDS011;60547;48.502;8.996;2023-05-10T14:23:32;4.47;;;0.90;;
72524;SDS011;60547;48.502;8.996;2023-05-10T14:25:57;1.67;;;0.80;;
72524;SDS011;60547;48.502;8.996;2023-05-10T14:28:23;2.42;;;0.90;;
72524;SDS011;60547;48.502;8.996;2023-05-10T14:30:49;2.97;;;0.90;;
72524;SDS011;60547;48.502;8.996;2023-05-10T14:33:16;3.67;;;0.80;;
72524;SDS011;60547;48.502;8.996;2023-05-10T14:35:42;1.25;;;0.70;;
72524;SDS011;60547;48.502;8.996;2023-05-10T14:38:07;6.95;;;1.35;;
72524;SDS011;60547;48.502;8.996;2023-05-10T14:40:33;3.83;;;1.00;;
72524;SDS011;60547;48.502;8.996;2023-05-10T14:43:02;2.88;;;1.00;;
72524;SDS011;60547;48.502;8.996;2023-05-10T14:45:28;2.90;;;1.00;;
72524;SDS011;60547;48.502;8.996;2023-05-10T14:47:53;1.55;;;0.85;;
72524;SDS011;60547;48.502;8.996;2023-05-10T14:50:19;3.58;;;1.00;;
72524;SDS011;60547;48.502;8.996;2023-05-10T14:52:44;6.20;;;1.10;;
72524;SDS011;60547;48.502;8.996;2023-05-10T14:55:10;2.10;;;0.82;;
72524;SDS011;60547;48.502;8.996;2023-05-10T14:57:35;3.28;;;1.10;;
72524;SDS011;60547;48.502;8.996;2023-05-10T15:00:02;1.88;;;0.68;;
72524;SDS011;60547;48.502;8.996;2023-05-10T15:02:28;1.98;;;0.75;;
72524;SDS011;60547;48.502;8.996;2023-05-10T15:04:55;2.13;;;1.02;;
72524;SDS011;60547;48.502;8.996;2023-05-10T15:07:21;4.68;;;0.88;;
72524;SDS011;60547;48.502;8.996;2023-05-10T15:09:46;1.75;;;0.90;;
72524;SDS011;60547;48.502;8.996;2023-05-10T15:12:11;3.70;;;0.98;;
72524;SDS011;60547;48.502;8.996;2023-05-10T15:14:37;3.40;;;0.88;;